Wetterstation Oberdrees
Wetterdaten: aktuell Montag, 20.11.2017 06:30
Datum Zeit Temp. A. Feuchte A. Luftdruck Regen Wind Richtung Richtung Taupunkt Windchill Windben
20.11.2017 06:30 3,8 C 83 % 1008 hPa 0,0 l/m 2,2 km/h (1 Bft) W-SW 247 1,2 C 3,8 C 2,2 km/h (1 Bft)
20.11.2017 06:20 3,8 C 83 % 1008 hPa 0,0 l/m 0,7 km/h (0 Bft) SW 225 1,2 C 3,8 C 2,2 km/h (1 Bft)
20.11.2017 06:10 3,8 C 83 % 1009 hPa 0,0 l/m 3,2 km/h (1 Bft) W-SW 247 1,2 C 3,8 C 4,3 km/h (1 Bft)
20.11.2017 06:00 3,8 C 83 % 1009 hPa 0,0 l/m 3,2 km/h (1 Bft) SW 225 1,2 C 3,8 C 4,3 km/h (1 Bft)
20.11.2017 05:50 3,7 C 84 % 1009 hPa 0,0 l/m 3,2 km/h (1 Bft) W-SW 247 1,3 C 3,7 C 4,3 km/h (1 Bft)
20.11.2017 05:40 3,7 C 84 % 1009 hPa 0,0 l/m 2,5 km/h (1 Bft) W-SW 247 1,3 C 3,7 C 4,3 km/h (1 Bft)
20.11.2017 05:30 3,6 C 84 % 1009 hPa 0,0 l/m 2,9 km/h (1 Bft) W-SW 247 1,2 C 3,6 C 6,5 km/h (2 Bft)
20.11.2017 05:20 3,6 C 84 % 1009 hPa 0,0 l/m 2,5 km/h (1 Bft) W-SW 247 1,2 C 3,6 C 6,5 km/h (2 Bft)
20.11.2017 05:10 3,5 C 84 % 1009 hPa 0,0 l/m 3,2 km/h (1 Bft) W-SW 247 1,1 C 3,5 C 8,6 km/h (2 Bft)
20.11.2017 05:00 3,6 C 84 % 1009 hPa 0,0 l/m 4,0 km/h (1 Bft) W-SW 247 1,2 C 3,6 C 6,5 km/h (2 Bft)
20.11.2017 04:50 3,6 C 84 % 1009 hPa 0,0 l/m 5,8 km/h (2 Bft) SW 225 1,2 C 3,6 C 8,6 km/h (2 Bft)
20.11.2017 04:40 3,7 C 84 % 1009 hPa 0,0 l/m 3,2 km/h (1 Bft) W-SW 247 1,3 C 3,7 C 6,5 km/h (2 Bft)
20.11.2017 04:30 3,8 C 84 % 1009 hPa 0,0 l/m 5,4 km/h (2 Bft) W 270 1,4 C 3,8 C 8,6 km/h (2 Bft)
20.11.2017 04:20 3,9 C 84 % 1009 hPa 0,0 l/m 7,2 km/h (2 Bft) W-SW 247 1,4 C 3,2 C 13,3 km/h (3 Bft)
20.11.2017 04:10 3,9 C 84 % 1009 hPa 0,0 l/m 6,5 km/h (2 Bft) W-SW 247 1,4 C 3,8 C 8,6 km/h (2 Bft)
20.11.2017 04:00 4,0 C 84 % 1009 hPa 0,0 l/m 5,8 km/h (2 Bft) W 270 1,5 C 4,0 C 8,6 km/h (2 Bft)
20.11.2017 03:50 4,1 C 84 % 1009 hPa 0,0 l/m 8,3 km/h (2 Bft) S-SW 202 1,6 C 2,4 C 11,2 km/h (2 Bft)
20.11.2017 03:40 4,1 C 84 % 1009 hPa 0,0 l/m 6,5 km/h (2 Bft) SW 225 1,6 C 4,0 C 13,3 km/h (3 Bft)
20.11.2017 03:30 4,2 C 84 % 1009 hPa 0,0 l/m 5,0 km/h (1 Bft) SW 225 1,7 C 4,2 C 6,5 km/h (2 Bft)
20.11.2017 03:20 4,3 C 84 % 1009 hPa 0,0 l/m 6,5 km/h (2 Bft) SW 225 1,8 C 4,2 C 8,6 km/h (2 Bft)
20.11.2017 03:10 4,4 C 84 % 1009 hPa 0,0 l/m 8,3 km/h (2 Bft) W-SW 247 1,9 C 2,7 C 11,2 km/h (2 Bft)
20.11.2017 03:00 4,4 C 84 % 1009 hPa 0,0 l/m 4,3 km/h (1 Bft) SW 225 1,9 C 4,4 C 11,2 km/h (2 Bft)
20.11.2017 02:50 4,4 C 84 % 1009 hPa 0,0 l/m 5,4 km/h (2 Bft) W 270 1,9 C 4,4 C 8,6 km/h (2 Bft)
20.11.2017 02:40 4,4 C 84 % 1009 hPa 0,0 l/m 3,6 km/h (1 Bft) W 270 1,9 C 4,4 C 6,5 km/h (2 Bft)
20.11.2017 02:30 4,5 C 84 % 1009 hPa 0,0 l/m 5,8 km/h (2 Bft) S-SW 202 2,0 C 4,5 C 8,6 km/h (2 Bft)
20.11.2017 02:20 4,5 C 85 % 1009 hPa 0,0 l/m 4,0 km/h (1 Bft) W-SW 247 2,2 C 4,5 C 6,5 km/h (2 Bft)
20.11.2017 02:10 4,5 C 85 % 1009 hPa 0,0 l/m 7,6 km/h (2 Bft) W 270 2,2 C 3,4 C 13,3 km/h (3 Bft)
20.11.2017 02:00 4,5 C 84 % 1009 hPa 0,0 l/m 5,0 km/h (1 Bft) W-SW 247 2,0 C 4,5 C 8,6 km/h (2 Bft)
20.11.2017 01:50 4,6 C 84 % 1009 hPa 0,0 l/m 5,4 km/h (2 Bft) W-SW 247 2,1 C 4,6 C 8,6 km/h (2 Bft)
20.11.2017 01:40 4,7 C 84 % 1009 hPa 0,0 l/m 7,2 km/h (2 Bft) W 270 2,2 C 4,0 C 15,5 km/h (3 Bft)
20.11.2017 01:30 4,8 C 84 % 1009 hPa 0,0 l/m 8,6 km/h (2 Bft) W-SW 247 2,3 C 2,9 C 13,3 km/h (3 Bft)
20.11.2017 01:20 4,9 C 84 % 1009 hPa 0,0 l/m 7,9 km/h (2 Bft) W-NW 292 2,4 C 3,6 C 13,3 km/h (3 Bft)
20.11.2017 01:10 4,9 C 85 % 1009 hPa 0,0 l/m 8,6 km/h (2 Bft) W-SW 247 2,6 C 3,0 C 11,2 km/h (2 Bft)
20.11.2017 01:00 4,9 C 85 % 1009 hPa 0,0 l/m 10,1 km/h (2 Bft) W 270 2,6 C 1,9 C 13,3 km/h (3 Bft)
20.11.2017 00:50 5,0 C 84 % 1010 hPa 0,0 l/m 4,7 km/h (1 Bft) W-SW 247 2,5 C 5,0 C 11,2 km/h (2 Bft)
20.11.2017 00:40 5,1 C 85 % 1010 hPa 0,0 l/m 8,6 km/h (2 Bft) W-SW 247 2,8 C 3,2 C 13,3 km/h (3 Bft)
20.11.2017 00:30 5,2 C 85 % 1010 hPa 0,0 l/m 9,0 km/h (2 Bft) W-NW 292 2,9 C 3,0 C 15,5 km/h (3 Bft)
20.11.2017 00:20 5,2 C 84 % 1010 hPa 0,0 l/m 5,8 km/h (2 Bft) W-SW 247 2,7 C 5,2 C 15,5 km/h (3 Bft)
20.11.2017 00:10 5,2 C 85 % 1010 hPa 0,0 l/m 9,4 km/h (2 Bft) W-SW 247 2,9 C 2,7 C 13,3 km/h (3 Bft)
20.11.2017 00:00 5,2 C 85 % 1010 hPa 0,0 l/m 6,8 km/h (2 Bft) W-NW 292 2,9 C 4,9 C 13,3 km/h (3 Bft)
19.11.2017 23:50 5,2 C 85 % 1010 hPa 0,0 l/m 10,1 km/h (2 Bft) SW 225 2,9 C 2,2 C 13,3 km/h (3 Bft)
19.11.2017 23:40 5,2 C 86 % 1010 hPa 0,0 l/m 8,6 km/h (2 Bft) W 270 3,1 C 3,3 C 11,2 km/h (2 Bft)
19.11.2017 23:30 5,2 C 86 % 1010 hPa 0,0 l/m 8,6 km/h (2 Bft) SW 225 3,1 C 3,3 C 11,2 km/h (2 Bft)
19.11.2017 23:20 5,3 C 86 % 1010 hPa 0,0 l/m 8,3 km/h (2 Bft) NW 315 3,2 C 3,7 C 11,2 km/h (2 Bft)
19.11.2017 23:10 5,3 C 86 % 1010 hPa 0,0 l/m 9,0 km/h (2 Bft) W 270 3,2 C 3,1 C 11,2 km/h (2 Bft)
19.11.2017 23:00 5,4 C 85 % 1010 hPa 0,0 l/m 7,9 km/h (2 Bft) W-SW 247 3,1 C 4,1 C 11,2 km/h (2 Bft)
19.11.2017 22:50 5,4 C 86 % 1010 hPa 0,0 l/m 6,8 km/h (2 Bft) SW 225 3,3 C 5,1 C 11,2 km/h (2 Bft)
19.11.2017 22:40 5,4 C 86 % 1010 hPa 0,0 l/m 9,0 km/h (2 Bft) NW 315 3,3 C 3,2 C 13,3 km/h (3 Bft)
19.11.2017 22:30 5,3 C 85 % 1010 hPa 0,0 l/m 7,9 km/h (2 Bft) W-NW 292 3,0 C 4,0 C 13,3 km/h (3 Bft)
19.11.2017 22:20 5,2 C 85 % 1010 hPa 0,0 l/m 6,8 km/h (2 Bft) W-NW 292 2,9 C 4,9 C 8,6 km/h (2 Bft)
19.11.2017 22:10 5,2 C 84 % 1010 hPa 0,0 l/m 8,6 km/h (2 Bft) W 270 2,7 C 3,3 C 15,5 km/h (3 Bft)
19.11.2017 22:00 5,2 C 85 % 1010 hPa 0,0 l/m 10,4 km/h (2 Bft) W-SW 247 2,9 C 2,0 C 15,5 km/h (3 Bft)
19.11.2017 21:50 5,1 C 85 % 1009 hPa 0,0 l/m 6,5 km/h (2 Bft) W 270 2,8 C 5,0 C 13,3 km/h (3 Bft)
19.11.2017 21:40 5,2 C 85 % 1009 hPa 0,0 l/m 11,2 km/h (2 Bft) W 270 2,9 C 1,5 C 13,3 km/h (3 Bft)
19.11.2017 21:30 5,2 C 85 % 1009 hPa 0,0 l/m 7,6 km/h (2 Bft) W 270 2,9 C 4,1 C 11,2 km/h (2 Bft)
19.11.2017 21:20 5,2 C 85 % 1009 hPa 0,0 l/m 11,2 km/h (2 Bft) W-NW 292 2,9 C 1,5 C 13,3 km/h (3 Bft)
19.11.2017 21:10 5,2 C 86 % 1009 hPa 0,0 l/m 9,4 km/h (2 Bft) W 270 3,1 C 2,7 C 13,3 km/h (3 Bft)
19.11.2017 21:00 5,1 C 86 % 1009 hPa 0,0 l/m 5,4 km/h (2 Bft) W 270 3,0 C 5,1 C 15,5 km/h (3 Bft)
19.11.2017 20:50 5,1 C 85 % 1009 hPa 0,0 l/m 8,6 km/h (2 Bft) W-SW 247 2,8 C 3,2 C 13,3 km/h (3 Bft)
19.11.2017 20:40 5,2 C 86 % 1009 hPa 0,0 l/m 5,0 km/h (1 Bft) W 270 3,1 C 5,2 C 11,2 km/h (2 Bft)
19.11.2017 20:30 5,2 C 85 % 1009 hPa 0,0 l/m 4,3 km/h (1 Bft) W 270 2,9 C 5,2 C 8,6 km/h (2 Bft)
19.11.2017 20:20 5,3 C 85 % 1009 hPa 0,0 l/m 13,0 km/h (3 Bft) W-NW 292 3,0 C 0,5 C 15,5 km/h (3 Bft)
19.11.2017 20:10 5,4 C 85 % 1008 hPa 0,0 l/m 7,6 km/h (2 Bft) W-SW 247 3,1 C 4,4 C 13,3 km/h (3 Bft)
19.11.2017 20:00 5,4 C 85 % 1008 hPa 0,0 l/m 8,3 km/h (2 Bft) W 270 3,1 C 3,8 C 11,2 km/h (2 Bft)
19.11.2017 19:50 5,2 C 85 % 1008 hPa 0,0 l/m 10,4 km/h (2 Bft) SW 225 2,9 C 2,0 C 13,3 km/h (3 Bft)
19.11.2017 19:40 5,2 C 85 % 1008 hPa 0,0 l/m 9,0 km/h (2 Bft) SW 225 2,9 C 3,0 C 11,2 km/h (2 Bft)
19.11.2017 19:30 5,3 C 84 % 1008 hPa 0,0 l/m 7,6 km/h (2 Bft) W 270 2,8 C 4,3 C 15,5 km/h (3 Bft)
19.11.2017 19:20 5,4 C 85 % 1008 hPa 0,0 l/m 11,5 km/h (2 Bft) SW 225 3,1 C 1,5 C 17,6 km/h (3 Bft)
19.11.2017 19:10 5,5 C 85 % 1008 hPa 0,0 l/m 10,8 km/h (2 Bft) W-SW 247 3,2 C 2,1 C 19,8 km/h (3 Bft)
19.11.2017 19:00 5,6 C 85 % 1008 hPa 0,0 l/m 8,6 km/h (2 Bft) NW 315 3,3 C 3,8 C 13,3 km/h (3 Bft)
19.11.2017 18:50 5,6 C 85 % 1008 hPa 0,0 l/m 12,2 km/h (2 Bft) W 270 3,3 C 1,3 C 19,8 km/h (3 Bft)
19.11.2017 18:40 5,7 C 84 % 1008 hPa 0,0 l/m 12,2 km/h (2 Bft) W 270 3,2 C 1,4 C 19,8 km/h (3 Bft)
19.11.2017 18:30 5,7 C 84 % 1008 hPa 0,0 l/m 13,0 km/h (3 Bft) W 270 3,2 C 1,0 C 15,5 km/h (3 Bft)
19.11.2017 18:20 5,8 C 83 % 1008 hPa 0,0 l/m 14,0 km/h (3 Bft) W-SW 247 3,1 C 0,6 C 17,6 km/h (3 Bft)
19.11.2017 18:10 6,0 C 83 % 1007 hPa 0,0 l/m 14,0 km/h (3 Bft) W 270 3,3 C 0,8 C 19,8 km/h (3 Bft)
19.11.2017 18:00 6,0 C 83 % 1007 hPa 0,0 l/m 15,1 km/h (3 Bft) W 270 3,3 C 0,2 C 19,8 km/h (3 Bft)
19.11.2017 17:50 6,0 C 83 % 1007 hPa 0,0 l/m 10,1 km/h (2 Bft) W-SW 247 3,3 C 3,1 C 17,6 km/h (3 Bft)
19.11.2017 17:40 6,1 C 83 % 1007 hPa 0,0 l/m 11,9 km/h (2 Bft) W-SW 247 3,4 C 2,1 C 15,5 km/h (3 Bft)
19.11.2017 17:30 6,1 C 83 % 1007 hPa 0,0 l/m 11,2 km/h (2 Bft) W 270 3,4 C 2,5 C 15,5 km/h (3 Bft)
19.11.2017 17:20 6,2 C 83 % 1007 hPa 0,0 l/m 10,1 km/h (2 Bft) NW 315 3,5 C 3,3 C 17,6 km/h (3 Bft)
19.11.2017 17:10 6,4 C 82 % 1007 hPa 0,0 l/m 8,6 km/h (2 Bft) W-NW 292 3,6 C 4,6 C 11,2 km/h (2 Bft)
19.11.2017 17:00 6,8 C 81 % 1007 hPa 0,0 l/m 12,6 km/h (3 Bft) W-SW 247 3,8 C 2,5 C 15,5 km/h (3 Bft)
19.11.2017 16:50 7,1 C 80 % 1007 hPa 0,0 l/m 8,6 km/h (2 Bft) NW 315 3,9 C 5,4 C 11,2 km/h (2 Bft)
19.11.2017 16:40 7,3 C 77 % 1007 hPa 0,0 l/m 15,5 km/h (3 Bft) W-SW 247 3,5 C 1,6 C 24,1 km/h (4 Bft)
19.11.2017 16:30 7,5 C 77 % 1007 hPa 0,0 l/m 12,6 km/h (3 Bft) W-SW 247 3,7 C 3,3 C 17,6 km/h (3 Bft)
19.11.2017 16:20 7,5 C 77 % 1007 hPa 0,0 l/m 19,4 km/h (3 Bft) SW 225 3,7 C 0,3 C 26,3 km/h (4 Bft)
19.11.2017 16:10 7,4 C 78 % 1007 hPa 0,0 l/m 11,2 km/h (2 Bft) W-SW 247 3,8 C 4,0 C 19,8 km/h (3 Bft)
19.11.2017 16:00 7,6 C 78 % 1007 hPa 0,0 l/m 15,1 km/h (3 Bft) W-SW 247 4,0 C 2,2 C 19,8 km/h (3 Bft)
19.11.2017 15:50 7,8 C 77 % 1007 hPa 0,0 l/m 9,0 km/h (2 Bft) W 270 4,0 C 5,8 C 11,2 km/h (2 Bft)
19.11.2017 15:40 8,2 C 77 % 1007 hPa 0,0 l/m 11,2 km/h (2 Bft) W-SW 247 4,4 C 4,9 C 15,5 km/h (3 Bft)
19.11.2017 15:30 8,2 C 77 % 1007 hPa 0,0 l/m 7,9 km/h (2 Bft) W-SW 247 4,4 C 7,0 C 13,3 km/h (3 Bft)
19.11.2017 15:20 8,2 C 77 % 1006 hPa 0,0 l/m 6,1 km/h (2 Bft) W-NW 292 4,4 C 8,2 C 11,2 km/h (2 Bft)
19.11.2017 15:10 8,0 C 77 % 1006 hPa 0,0 l/m 7,6 km/h (2 Bft) SW 225 4,2 C 7,1 C 8,6 km/h (2 Bft)
19.11.2017 15:00 8,0 C 76 % 1006 hPa 0,0 l/m 14,8 km/h (3 Bft) N-NW 337 4,0 C 2,8 C 26,3 km/h (4 Bft)
19.11.2017 14:50 8,0 C 76 % 1006 hPa 0,0 l/m 13,3 km/h (3 Bft) W 270 4,0 C 3,5 C 15,5 km/h (3 Bft)
19.11.2017 14:40 8,2 C 77 % 1006 hPa 0,0 l/m 9,7 km/h (2 Bft) W-NW 292 4,4 C 5,8 C 13,3 km/h (3 Bft)
19.11.2017 14:30 8,4 C 77 % 1006 hPa 0,0 l/m 8,6 km/h (2 Bft) S-SW 202 4,6 C 6,7 C 13,3 km/h (3 Bft)
19.11.2017 14:20 8,2 C 78 % 1006 hPa 0,0 l/m 10,8 km/h (2 Bft) W-SW 247 4,6 C 5,1 C 19,8 km/h (3 Bft)
19.11.2017 14:10 8,0 C 77 % 1006 hPa 0,0 l/m 9,0 km/h (2 Bft) N-NW 337 4,2 C 6,0 C 13,3 km/h (3 Bft)
19.11.2017 14:00 7,9 C 78 % 1006 hPa 0,0 l/m 7,6 km/h (2 Bft) W-SW 247 4,3 C 7,0 C 17,6 km/h (3 Bft)
19.11.2017 13:50 8,0 C 78 % 1006 hPa 0,0 l/m 14,8 km/h (3 Bft) NW 315 4,4 C 2,8 C 19,8 km/h (3 Bft)
19.11.2017 13:40 7,9 C 77 % 1006 hPa 0,0 l/m 9,0 km/h (2 Bft) W-NW 292 4,1 C 5,9 C 13,3 km/h (3 Bft)
19.11.2017 13:30 8,0 C 77 % 1006 hPa 0,0 l/m 11,2 km/h (2 Bft) W-SW 247 4,2 C 4,7 C 15,5 km/h (3 Bft)
19.11.2017 13:20 8,1 C 78 % 1006 hPa 0,0 l/m 10,1 km/h (2 Bft) W 270 4,5 C 5,4 C 13,3 km/h (3 Bft)
19.11.2017 13:10 7,8 C 79 % 1006 hPa 0,0 l/m 9,0 km/h (2 Bft) NW 315 4,4 C 5,8 C 15,5 km/h (3 Bft)
19.11.2017 13:00 7,8 C 79 % 1006 hPa 0,0 l/m 10,1 km/h (2 Bft) W-NW 292 4,4 C 5,1 C 13,3 km/h (3 Bft)
19.11.2017 12:50 7,7 C 78 % 1006 hPa 0,0 l/m 9,4 km/h (2 Bft) NW 315 4,1 C 5,4 C 13,3 km/h (3 Bft)
19.11.2017 12:40 7,7 C 79 % 1006 hPa 0,0 l/m 6,5 km/h (2 Bft) W-SW 247 4,3 C 7,6 C 17,6 km/h (3 Bft)
19.11.2017 12:30 7,8 C 79 % 1006 hPa 0,0 l/m 14,4 km/h (3 Bft) W 270 4,4 C 2,7 C 22,0 km/h (4 Bft)
19.11.2017 12:20 8,2 C 78 % 1006 hPa 0,0 l/m 12,6 km/h (3 Bft) SW 225 4,6 C 4,1 C 22,0 km/h (4 Bft)
19.11.2017 12:10 8,0 C 81 % 1006 hPa 0,0 l/m 10,4 km/h (2 Bft) W-SW 247 4,9 C 5,1 C 13,3 km/h (3 Bft)
19.11.2017 12:00 7,4 C 82 % 1006 hPa 0,0 l/m 6,8 km/h (2 Bft) W 270 4,5 C 7,1 C 11,2 km/h (2 Bft)
19.11.2017 11:50 7,1 C 81 % 1006 hPa 0,0 l/m 19,1 km/h (3 Bft) SW 225 4,1 C -0,1 C 24,1 km/h (4 Bft)
19.11.2017 11:40 7,0 C 81 % 1006 hPa 0,0 l/m 5,4 km/h (2 Bft) W 270 4,0 C 7,0 C 8,6 km/h (2 Bft)
19.11.2017 11:30 6,9 C 81 % 1006 hPa 0,0 l/m 12,6 km/h (3 Bft) NW 315 3,9 C 2,6 C 15,5 km/h (3 Bft)
19.11.2017 11:20 6,9 C 83 % 1006 hPa 0,0 l/m 11,2 km/h (2 Bft) W-NW 292 4,2 C 3,4 C 17,6 km/h (3 Bft)
19.11.2017 11:10 6,5 C 84 % 1006 hPa 0,0 l/m 13,3 km/h (3 Bft) W-SW 247 4,0 C 1,8 C 17,6 km/h (3 Bft)
19.11.2017 11:00 6,3 C 85 % 1006 hPa 0,0 l/m 14,4 km/h (3 Bft) W-SW 247 4,0 C 0,9 C 22,0 km/h (4 Bft)
19.11.2017 10:50 6,0 C 85 % 1006 hPa 0,0 l/m 8,3 km/h (2 Bft) W-SW 247 3,7 C 4,4 C 11,2 km/h (2 Bft)
19.11.2017 10:40 5,9 C 85 % 1006 hPa 0,0 l/m 9,7 km/h (2 Bft) W 270 3,6 C 3,3 C 13,3 km/h (3 Bft)
19.11.2017 10:30 5,7 C 85 % 1006 hPa 0,0 l/m 11,2 km/h (2 Bft) SW 225 3,4 C 2,1 C 15,5 km/h (3 Bft)
19.11.2017 10:20 5,6 C 87 % 1006 hPa 0,0 l/m 15,5 km/h (3 Bft) W-SW 247 3,6 C -0,4 C 19,8 km/h (3 Bft)
19.11.2017 10:10 5,2 C 87 % 1005 hPa 0,0 l/m 7,6 km/h (2 Bft) W 270 3,2 C 4,1 C 15,5 km/h (3 Bft)
19.11.2017 10:00 4,9 C 87 % 1005 hPa 0,0 l/m 8,6 km/h (2 Bft) W 270 2,9 C 3,0 C 13,3 km/h (3 Bft)
19.11.2017 09:50 4,8 C 87 % 1005 hPa 0,0 l/m 5,4 km/h (2 Bft) W 270 2,8 C 4,8 C 8,6 km/h (2 Bft)
19.11.2017 09:40 4,8 C 87 % 1005 hPa 0,5 l/m 5,4 km/h (2 Bft) W 270 2,8 C 4,8 C 8,6 km/h (2 Bft)
19.11.2017 09:30 4,7 C 87 % 1005 hPa 0,0 l/m 7,6 km/h (2 Bft) W-SW 247 2,7 C 3,6 C 15,5 km/h (3 Bft)
19.11.2017 09:20 4,7 C 86 % 1005 hPa 0,0 l/m 7,6 km/h (2 Bft) W 270 2,6 C 3,6 C 8,6 km/h (2 Bft)
19.11.2017 09:10 4,4 C 87 % 1005 hPa 0,0 l/m 9,0 km/h (2 Bft) SW 225 2,4 C 2,2 C 13,3 km/h (3 Bft)
19.11.2017 09:00 3,9 C 87 % 1005 hPa 0,0 l/m 7,6 km/h (2 Bft) W-NW 292 1,9 C 2,8 C 13,3 km/h (3 Bft)
19.11.2017 08:50 3,7 C 87 % 1005 hPa 0,0 l/m 12,2 km/h (2 Bft) W 270 1,7 C -0,9 C 13,3 km/h (3 Bft)
19.11.2017 08:40 3,5 C 88 % 1005 hPa 0,0 l/m 4,3 km/h (1 Bft) W 270 1,7 C 3,5 C 8,6 km/h (2 Bft)
19.11.2017 08:30 3,5 C 88 % 1005 hPa 0,0 l/m 9,0 km/h (2 Bft) W 270 1,7 C 1,2 C 13,3 km/h (3 Bft)
19.11.2017 08:20 3,5 C 88 % 1005 hPa 0,0 l/m 6,5 km/h (2 Bft) W 270 1,7 C 3,4 C 8,6 km/h (2 Bft)
19.11.2017 08:10 3,5 C 88 % 1005 hPa 0,0 l/m 8,3 km/h (2 Bft) W-SW 247 1,7 C 1,8 C 8,6 km/h (2 Bft)
19.11.2017 08:00 3,5 C 89 % 1005 hPa 0,0 l/m 6,5 km/h (2 Bft) SW 225 1,9 C 3,4 C 8,6 km/h (2 Bft)
19.11.2017 07:50 3,4 C 89 % 1005 hPa 0,0 l/m 7,6 km/h (2 Bft) W 270 1,8 C 2,3 C 11,2 km/h (2 Bft)
19.11.2017 07:40 3,4 C 89 % 1004 hPa 0,0 l/m 7,6 km/h (2 Bft) W 270 1,8 C 2,3 C 11,2 km/h (2 Bft)
19.11.2017 07:30 3,4 C 89 % 1004 hPa 0,0 l/m 6,8 km/h (2 Bft) W-SW 247 1,8 C 3,0 C 11,2 km/h (2 Bft)
19.11.2017 07:20 3,4 C 89 % 1004 hPa 0,0 l/m 5,8 km/h (2 Bft) W-SW 247 1,8 C 3,4 C 8,6 km/h (2 Bft)
19.11.2017 07:10 3,5 C 89 % 1004 hPa 0,0 l/m 6,8 km/h (2 Bft) W-SW 247 1,9 C 3,1 C 8,6 km/h (2 Bft)
19.11.2017 07:00 3,6 C 88 % 1004 hPa 0,0 l/m 5,4 km/h (2 Bft) W-SW 247 1,8 C 3,6 C 11,2 km/h (2 Bft)
_ Min-Zeit 07:20 14:50 07:00 - 06:20 - - 05:10 08:50 06:20
Minimum _ 3,4 C 76 % 1004 hPa - 0,7 km/h (0 Bft) - - 1,1 C -0,9 C 2,2 km/h (1 Bft)
_ Max-Zeit 14:30 07:10 22:00 09:40 16:20 - - 12:10 15:20 15:00
Maximum _ 8,4 C 89 % 1010 hPa 0,5 l/m 19,4 km/h
SW (3 Bft)
- - 4,9 C 8,2 C 26,3 km/h
N-NW (4 Bft)
Durchschnitt _ 5,4 C 84 % 1007 hPa #0,5 l/m 8,3 km/h (2 Bft) W-SW - 2,8 C 3,6 C 12,9 km/h (3 Bft)
www.klaudt.eu